createdAt,value
2018-09-28T00:02:05.105Z,98728.34
2018-09-28T00:04:35.838Z,98727.38
2018-09-28T00:07:07.048Z,98730.27
2018-09-28T00:09:37.520Z,98725.75
2018-09-28T00:12:07.573Z,98724.30
2018-09-28T00:14:38.329Z,98721.99
2018-09-28T00:17:09.511Z,98719.77
2018-09-28T00:22:46.336Z,98718.07
2018-09-28T00:25:17.454Z,98711.17
2018-09-28T00:27:54.610Z,98711.69
2018-09-28T00:30:27.529Z,98703.64
2018-09-28T00:33:00.088Z,98709.02
2018-09-28T00:35:30.499Z,98699.88
2018-09-28T00:38:04.068Z,98693.03
2018-09-28T00:40:37.996Z,98697.02
2018-09-28T00:43:08.307Z,98690.09
2018-09-28T00:45:37.786Z,98690.48
2018-09-28T00:48:07.776Z,98682.18
2018-09-28T00:50:37.718Z,98683.03
2018-09-28T00:53:07.172Z,98678.31
2018-09-28T00:55:36.836Z,98672.73
2018-09-28T00:58:08.010Z,98676.10
2018-09-28T01:00:37.591Z,98667.86
2018-09-28T01:03:07.099Z,98670.11
2018-09-28T01:05:36.938Z,98667.66
2018-09-28T01:08:07.709Z,98668.33
2018-09-28T01:10:37.246Z,98657.52
2018-09-28T01:13:06.713Z,98665.91
2018-09-28T01:15:36.173Z,98662.73
2018-09-28T01:18:24.952Z,98664.41
2018-09-28T01:20:54.378Z,98660.13
2018-09-28T01:23:23.794Z,98658.52
2018-09-28T01:25:53.309Z,98652.36
2018-09-28T01:28:23.001Z,98644.67
2018-09-28T01:30:52.499Z,98653.00
2018-09-28T01:33:21.905Z,98647.38
2018-09-28T01:35:51.338Z,98651.00
2018-09-28T01:38:20.746Z,98649.45
2018-09-28T01:40:50.655Z,98647.38
2018-09-28T01:43:21.487Z,98643.83
2018-09-28T01:45:50.898Z,98640.60
2018-09-28T01:48:20.396Z,98635.67
2018-09-28T01:50:49.803Z,98640.55
2018-09-28T01:53:20.548Z,98631.70
2018-09-28T01:55:50.029Z,98629.70
2018-09-28T01:58:19.488Z,98616.95
2018-09-28T02:00:48.975Z,98621.47
2018-09-28T02:03:18.661Z,98617.34
2018-09-28T02:05:48.102Z,98623.02
2018-09-28T02:08:17.869Z,98620.02
2018-09-28T02:10:47.271Z,98615.73
2018-09-28T02:13:16.672Z,98614.79
2018-09-28T02:15:46.215Z,98614.63
2018-09-28T02:18:22.321Z,98621.56
2018-09-28T02:20:51.846Z,98620.31
2018-09-28T02:23:21.500Z,98614.79
2018-09-28T02:25:50.977Z,98611.27
2018-09-28T02:28:20.743Z,98604.19
2018-09-28T02:30:50.305Z,98600.95
2018-09-28T02:33:21.475Z,98601.97
2018-09-28T02:35:51.198Z,98599.35
2018-09-28T02:38:21.043Z,98601.20
2018-09-28T02:40:50.523Z,98591.59
2018-09-28T02:43:20.720Z,98592.52
2018-09-28T02:45:50.298Z,98600.21
2018-09-28T02:48:19.983Z,98600.05
2018-09-28T02:50:49.472Z,98603.44
2018-09-28T02:53:19.833Z,98600.36
2018-09-28T02:55:50.149Z,98595.50
2018-09-28T02:58:19.976Z,98593.38
2018-09-28T03:00:49.563Z,98591.52
2018-09-28T03:03:19.162Z,98587.73
2018-09-28T03:05:48.689Z,98590.49
2018-09-28T03:08:18.279Z,98591.80
2018-09-28T03:10:48.302Z,98589.64
2018-09-28T03:13:18.254Z,98581.58
2018-09-28T03:15:47.738Z,98583.39
2018-09-28T03:18:17.437Z,98586.70
2018-09-28T03:20:47.207Z,98585.55
2018-09-28T03:23:17.054Z,98585.19
2018-09-28T03:25:46.571Z,98593.39
2018-09-28T03:28:16.170Z,98588.11
2018-09-28T03:30:52.666Z,98585.86
2018-09-28T03:33:22.867Z,98583.25
2018-09-28T03:35:53.798Z,98584.35
2018-09-28T03:38:23.700Z,98582.91
2018-09-28T03:40:53.190Z,98575.13
2018-09-28T03:43:22.855Z,98577.05
2018-09-28T03:45:52.296Z,98584.98
2018-09-28T03:48:22.004Z,98581.97
2018-09-28T03:50:53.855Z,98578.60
2018-09-28T03:53:23.817Z,98574.29
2018-09-28T03:55:53.529Z,98580.06
2018-09-28T03:58:23.296Z,98585.35
2018-09-28T04:00:52.711Z,98577.45
2018-09-28T04:03:22.513Z,98579.06
2018-09-28T04:05:57.889Z,98579.77
2018-09-28T04:08:27.424Z,98580.82
2018-09-28T04:10:56.848Z,98578.20
2018-09-28T04:13:26.326Z,98570.67
2018-09-28T04:15:55.757Z,98576.29
2018-09-28T04:18:25.118Z,98575.13
2018-09-28T04:20:54.694Z,98583.56
2018-09-28T04:23:25.756Z,98582.10
2018-09-28T04:26:23.063Z,98578.71
2018-09-28T04:28:52.840Z,98573.78
2018-09-28T04:31:23.908Z,98577.02
2018-09-28T04:33:54.501Z,98568.83
2018-09-28T04:36:24.513Z,98576.34
2018-09-28T04:38:54.099Z,98579.20
2018-09-28T04:41:25.885Z,98578.12
2018-09-28T04:43:56.531Z,98581.33
2018-09-28T04:46:26.298Z,98584.53
2018-09-28T04:48:58.463Z,98586.78
2018-09-28T04:51:27.918Z,98591.69
2018-09-28T04:53:57.795Z,98594.86
2018-09-28T04:56:41.955Z,98593.97
2018-09-28T04:59:11.563Z,98598.67
2018-09-28T05:01:41.159Z,98590.00
2018-09-28T05:04:11.053Z,98592.23
2018-09-28T05:06:40.806Z,98595.86
2018-09-28T05:09:12.466Z,98588.34
2018-09-28T05:11:42.327Z,98593.80
2018-09-28T05:14:11.885Z,98595.02
2018-09-28T05:16:43.884Z,98599.20
2018-09-28T05:19:13.624Z,98590.20
2018-09-28T05:21:43.803Z,98601.66
2018-09-28T05:24:13.375Z,98602.36
2018-09-28T05:26:43.769Z,98605.58
2018-09-28T05:29:13.461Z,98605.13
2018-09-28T05:31:43.666Z,98603.48
2018-09-28T05:34:13.457Z,98607.41
2018-09-28T05:36:43.983Z,98606.34
2018-09-28T05:39:14.309Z,98611.48
2018-09-28T05:41:44.012Z,98608.95
2018-09-28T05:44:13.888Z,98612.11
2018-09-28T05:46:43.535Z,98613.87
2018-09-28T05:49:13.136Z,98613.87
2018-09-28T05:51:42.665Z,98618.55
2018-09-28T05:54:13.594Z,98616.55
2018-09-28T05:56:43.186Z,98622.63
2018-09-28T05:59:17.687Z,98620.02
2018-09-28T06:01:58.083Z,98622.56
2018-09-28T06:04:33.488Z,98628.95
2018-09-28T06:07:03.326Z,98628.48
2018-09-28T06:09:32.863Z,98633.86
2018-09-28T06:12:03.173Z,98636.47
2018-09-28T06:14:32.770Z,98630.77
2018-09-28T06:17:02.422Z,98633.75
2018-09-28T06:19:32.020Z,98633.98
2018-09-28T06:22:02.445Z,98639.81
2018-09-28T06:24:32.014Z,98634.42
2018-09-28T06:27:02.980Z,98635.57
2018-09-28T06:29:32.461Z,98641.03
2018-09-28T06:32:02.113Z,98633.39
2018-09-28T06:34:31.704Z,98635.63
2018-09-28T06:37:01.367Z,98633.73
2018-09-28T06:39:31.007Z,98631.41
2018-09-28T06:42:04.672Z,98633.77
2018-09-28T06:44:34.162Z,98628.66
2018-09-28T06:47:03.694Z,98642.17
2018-09-28T06:49:33.213Z,98647.17
2018-09-28T06:52:02.787Z,98654.48
2018-09-28T06:54:32.605Z,98657.91
2018-09-28T06:57:02.415Z,98654.60
2018-09-28T06:59:31.948Z,98659.30
2018-09-28T07:02:01.541Z,98662.59
2018-09-28T07:04:31.038Z,98667.37
2018-09-28T07:07:00.585Z,98676.43
2018-09-28T07:09:30.827Z,98672.69
2018-09-28T07:12:00.487Z,98683.98
2018-09-28T07:14:30.055Z,98680.89
2018-09-28T07:16:59.880Z,98688.19
2018-09-28T07:19:29.795Z,98686.25
2018-09-28T07:21:59.616Z,98688.79
2018-09-28T07:24:29.973Z,98688.53
2018-09-28T07:26:59.954Z,98689.63
2018-09-28T07:29:30.219Z,98691.06
2018-09-28T07:31:59.845Z,98689.16
2018-09-28T07:34:30.154Z,98686.28
2018-09-28T07:37:00.141Z,98690.52
2018-09-28T07:39:30.063Z,98695.47
2018-09-28T07:42:02.115Z,98697.86
2018-09-28T07:44:31.898Z,98693.16
2018-09-28T07:47:02.304Z,98700.67
2018-09-28T07:49:31.928Z,98702.59
2018-09-28T07:52:02.692Z,98709.47
2018-09-28T07:54:35.389Z,98710.00
2018-09-28T07:57:06.066Z,98713.66
2018-09-28T07:59:35.845Z,98723.52
2018-09-28T08:02:05.730Z,98717.27
2018-09-28T08:04:35.714Z,98717.95
2018-09-28T08:07:07.118Z,98729.45
2018-09-28T08:09:36.970Z,98728.31
2018-09-28T08:12:06.744Z,98726.54
2018-09-28T08:14:41.326Z,98725.09
2018-09-28T08:17:10.802Z,98737.93
2018-09-28T08:19:43.925Z,98734.49
2018-09-28T08:22:24.612Z,98727.15
2018-09-28T08:24:54.561Z,98729.53
2018-09-28T08:27:25.906Z,98728.73
2018-09-28T08:29:55.704Z,98729.14
2018-09-28T08:32:25.940Z,98728.55
2018-09-28T08:34:56.270Z,98723.33
2018-09-28T08:37:25.758Z,98734.33
2018-09-28T08:39:55.297Z,98728.37
2018-09-28T08:42:24.977Z,98731.88
2018-09-28T08:44:54.990Z,98735.63
2018-09-28T08:47:24.574Z,98730.97
2018-09-28T08:49:54.145Z,98734.27
2018-09-28T08:52:23.990Z,98739.34
2018-09-28T08:54:53.573Z,98732.66
2018-09-28T08:57:23.145Z,98741.67
2018-09-28T08:59:53.123Z,98739.64
2018-09-28T09:02:22.622Z,98737.03
2018-09-28T09:04:52.005Z,98742.37
2018-09-28T09:07:21.428Z,98741.41
2018-09-28T09:09:52.257Z,98743.05
2018-09-28T09:12:21.878Z,98742.05
2018-09-28T09:14:51.280Z,98747.71
2018-09-28T09:17:20.710Z,98747.02
2018-09-28T09:19:50.218Z,98753.17
2018-09-28T09:22:19.773Z,98745.22
2018-09-28T09:24:50.868Z,98701.53
2018-09-28T09:27:21.662Z,98749.14
2018-09-28T09:29:53.061Z,98749.61
2018-09-28T09:32:22.868Z,98748.12
2018-09-28T09:34:52.756Z,98744.98
2018-09-28T09:37:22.429Z,98732.73
2018-09-28T09:39:52.199Z,98736.91
2018-09-28T09:42:22.632Z,98715.61
2018-09-28T09:44:52.316Z,98716.27
2018-09-28T09:47:22.513Z,98704.48
2018-09-28T09:49:53.276Z,98709.67
2018-09-28T09:52:23.179Z,98709.57
2018-09-28T09:54:52.754Z,98712.84
2018-09-28T09:57:22.953Z,98702.03
2018-09-28T09:59:53.294Z,98702.12
2018-09-28T10:02:28.381Z,98700.84
2018-09-28T10:04:58.222Z,98698.43
2018-09-28T10:07:27.838Z,98702.38
2018-09-28T10:09:57.661Z,98697.74
2018-09-28T10:12:29.348Z,98694.94
2018-09-28T10:14:59.437Z,98699.09
2018-09-28T10:17:30.959Z,98677.18
2018-09-28T10:20:00.971Z,98693.14
2018-09-28T10:22:30.638Z,98688.08
2018-09-28T10:25:00.779Z,98689.86
2018-09-28T10:27:30.376Z,98684.80
2018-09-28T10:29:59.891Z,98682.14
2018-09-28T10:32:29.338Z,98672.36
2018-09-28T10:35:03.487Z,98672.81
2018-09-28T10:37:33.607Z,98667.02
2018-09-28T10:40:03.023Z,98662.89
2018-09-28T10:42:32.718Z,98654.23
2018-09-28T10:45:02.135Z,98659.69
2018-09-28T10:47:31.987Z,98656.20
2018-09-28T10:50:01.379Z,98657.63
2018-09-28T10:52:31.042Z,98648.67
2018-09-28T10:55:00.413Z,98650.03
2018-09-28T10:57:30.415Z,98653.06
2018-09-28T11:00:00.051Z,98640.91
2018-09-28T11:02:29.833Z,98637.10
2018-09-28T11:04:59.872Z,98638.08
2018-09-28T11:07:29.682Z,98633.75
2018-09-28T11:09:59.234Z,98639.20
2018-09-28T11:12:29.851Z,98638.81
2018-09-28T11:15:08.341Z,98642.01
2018-09-28T11:17:37.763Z,98641.59
2018-09-28T11:20:07.652Z,98627.48
2018-09-28T11:22:37.097Z,98629.07
2018-09-28T11:25:06.535Z,98625.11
2018-09-28T11:27:35.943Z,98624.17
2018-09-28T11:30:05.824Z,98615.91
2018-09-28T11:32:35.359Z,98611.53
2018-09-28T11:35:04.868Z,98611.42
2018-09-28T11:37:34.596Z,98618.17
2018-09-28T11:40:10.998Z,98604.52
2018-09-28T11:42:40.905Z,98605.20
2018-09-28T11:45:10.436Z,98606.95
2018-09-28T11:47:39.838Z,98610.78
2018-09-28T11:50:10.575Z,98613.59
2018-09-28T11:52:39.899Z,98608.75
2018-09-28T11:55:09.352Z,98613.03
2018-09-28T11:57:38.949Z,98600.59
2018-09-28T12:00:08.687Z,98608.38
2018-09-28T12:02:38.337Z,98604.88
2018-09-28T12:05:11.369Z,98599.27
2018-09-28T12:07:48.132Z,98600.00
2018-09-28T12:10:19.231Z,98602.47
2018-09-28T12:12:49.040Z,98605.47
2018-09-28T12:15:20.693Z,98599.75
2018-09-28T12:17:52.617Z,98598.66
2018-09-28T12:20:22.184Z,98594.04
2018-09-28T12:22:51.737Z,98587.88
2018-09-28T12:25:21.219Z,98587.33
2018-09-28T12:27:54.860Z,98583.50
2018-09-28T12:30:24.284Z,98575.66
2018-09-28T12:32:53.904Z,98578.43
2018-09-28T12:35:23.772Z,98568.81
2018-09-28T12:37:54.737Z,98570.88
2018-09-28T12:40:24.215Z,98573.27
2018-09-28T12:42:53.837Z,98571.10
2018-09-28T12:45:23.954Z,98571.43
2018-09-28T12:47:54.603Z,98571.73
2018-09-28T12:50:25.431Z,98566.98
2018-09-28T12:52:55.182Z,98559.91
2018-09-28T12:55:24.898Z,98569.91
2018-09-28T12:57:55.009Z,98570.39
2018-09-28T13:00:29.809Z,98568.55
2018-09-28T13:03:02.333Z,98565.17
2018-09-28T13:05:34.576Z,98568.80
2018-09-28T13:08:05.659Z,98566.09
2018-09-28T13:10:36.305Z,98563.98
2018-09-28T13:13:06.020Z,98571.59
2018-09-28T13:15:36.399Z,98565.58
2018-09-28T13:18:07.664Z,98568.39
2018-09-28T13:20:37.773Z,98574.95
2018-09-28T13:23:07.249Z,98577.03
2018-09-28T13:25:40.352Z,98562.61
2018-09-28T13:28:10.429Z,98572.13
2018-09-28T13:30:41.361Z,98561.02
2018-09-28T13:33:12.779Z,98557.52
2018-09-28T13:35:42.426Z,98545.43
2018-09-28T13:38:11.887Z,98537.67
2018-09-28T13:40:41.720Z,98544.95
2018-09-28T13:43:15.292Z,98533.42
2018-09-28T13:45:49.557Z,98530.44
2018-09-28T13:48:19.959Z,98533.84
2018-09-28T13:50:55.099Z,98527.54
2018-09-28T13:53:24.831Z,98525.41
2018-09-28T13:55:57.674Z,98526.08
2018-09-28T13:58:27.203Z,98521.33
2018-09-28T14:00:59.133Z,98529.87
2018-09-28T14:03:30.037Z,98535.99
2018-09-28T14:06:02.718Z,98532.99
2018-09-28T14:08:37.145Z,98547.23
2018-09-28T14:11:06.663Z,98555.23
2018-09-28T14:13:36.164Z,98554.84
2018-09-28T14:16:05.956Z,98545.91
2018-09-28T14:18:35.744Z,98546.35
2018-09-28T14:21:05.306Z,98544.84
2018-09-28T14:23:34.822Z,98546.14
2018-09-28T14:26:06.893Z,98550.39
2018-09-28T14:28:36.533Z,98545.55
2018-09-28T14:31:06.251Z,98547.52
2018-09-28T14:33:40.958Z,98546.38
2018-09-28T14:36:16.780Z,98561.95
2018-09-28T14:38:52.380Z,98554.98
2018-09-28T14:41:23.175Z,98540.62
2018-09-28T14:43:58.215Z,98548.06
2018-09-28T14:46:28.205Z,98544.81
2018-09-28T14:49:10.039Z,98545.51
2018-09-28T14:51:44.119Z,98541.02
2018-09-28T14:54:22.147Z,98550.04
2018-09-28T14:57:53.267Z,98551.28
2018-09-28T15:00:23.554Z,98558.28
2018-09-28T15:02:53.071Z,98551.17
2018-09-28T15:05:23.073Z,98557.39
2018-09-28T15:10:52.356Z,98560.27
2018-09-28T15:16:24.288Z,98550.26
2018-09-28T15:18:57.403Z,98555.63
2018-09-28T15:21:47.138Z,98549.95
2018-09-28T15:24:24.788Z,98547.69
2018-09-28T15:27:03.283Z,98544.12
2018-09-28T15:29:37.048Z,98547.05
2018-09-28T15:32:11.128Z,98546.04
2018-09-28T15:37:27.879Z,98544.06
2018-09-28T15:40:09.268Z,98541.64
2018-09-28T15:42:39.833Z,98541.12
2018-09-28T15:45:09.807Z,98540.33
2018-09-28T15:47:43.641Z,98547.78
2018-09-28T15:50:13.443Z,98554.44
2018-09-28T15:52:43.545Z,98554.17
2018-09-28T15:55:13.659Z,98554.52
2018-09-28T15:57:43.457Z,98555.46
2018-09-28T16:00:13.096Z,98559.66
2018-09-28T16:02:43.338Z,98553.84
2018-09-28T16:05:21.641Z,98547.04
2018-09-28T16:08:01.402Z,98552.58
2018-09-28T16:10:32.026Z,98557.94
2018-09-28T16:13:01.907Z,98553.74
2018-09-28T16:15:32.550Z,98558.30
2018-09-28T16:18:03.006Z,98561.37
2018-09-28T16:20:32.854Z,98564.09
2018-09-28T16:23:08.240Z,98555.73
2018-09-28T16:25:40.219Z,98567.39
2018-09-28T16:28:11.887Z,98574.00
2018-09-28T16:30:41.981Z,98580.95
2018-09-28T16:33:11.766Z,98577.44
2018-09-28T16:35:41.670Z,98573.19
2018-09-28T16:38:11.387Z,98578.41
2018-09-28T16:40:41.113Z,98581.77
2018-09-28T16:43:10.968Z,98583.09
2018-09-28T16:45:40.978Z,98585.39
2018-09-28T16:48:10.704Z,98599.83
2018-09-28T16:50:40.362Z,98600.56
2018-09-28T16:53:10.108Z,98607.78
2018-09-28T16:55:40.292Z,98602.67
2018-09-28T16:58:10.580Z,98603.00
2018-09-28T17:00:40.811Z,98604.25
2018-09-28T17:03:11.129Z,98609.20
2018-09-28T17:05:40.857Z,98616.61
2018-09-28T17:08:10.682Z,98613.53
2018-09-28T17:10:40.430Z,98616.77
2018-09-28T17:13:14.072Z,98624.93
2018-09-28T17:15:43.813Z,98620.56
2018-09-28T17:18:14.244Z,98631.72
2018-09-28T17:20:44.126Z,98620.58
2018-09-28T17:23:14.361Z,98627.87
2018-09-28T17:25:45.249Z,98631.54
2018-09-28T17:28:17.762Z,98639.16
2018-09-28T17:30:48.282Z,98637.58
2018-09-28T17:33:18.294Z,98644.87
2018-09-28T17:35:48.712Z,98643.18
2018-09-28T17:38:33.006Z,98654.94
2018-09-28T17:41:03.271Z,98663.50
2018-09-28T17:43:33.912Z,98662.03
2018-09-28T17:46:04.274Z,98665.33
2018-09-28T17:48:33.898Z,98670.50
2018-09-28T17:51:03.549Z,98675.91
2018-09-28T17:56:27.889Z,98698.94
2018-09-28T17:58:57.851Z,98699.52
2018-09-28T18:01:27.786Z,98703.53
2018-09-28T18:03:58.349Z,98707.53
2018-09-28T18:06:45.700Z,98713.91
2018-09-28T18:09:16.032Z,98714.89
2018-09-28T18:11:49.042Z,98718.64
2018-09-28T18:14:27.046Z,98727.05
2018-09-28T18:16:58.917Z,98737.73
2018-09-28T18:19:30.736Z,98744.58
2018-09-28T18:22:42.697Z,98740.83
2018-09-28T18:29:25.509Z,98757.39
2018-09-28T18:32:13.669Z,98753.19
2018-09-28T18:35:10.955Z,98761.44
2018-09-28T18:38:13.934Z,98762.66
2018-09-28T18:44:05.696Z,98786.49
2018-09-28T18:47:09.210Z,98797.88
2018-09-28T18:52:25.944Z,98804.08
2018-09-28T18:55:04.827Z,98805.64
2018-09-28T18:57:53.680Z,98821.23
2018-09-28T19:00:43.199Z,98819.98
2018-09-28T19:03:38.902Z,98834.23
2018-09-28T19:06:22.971Z,98844.35
2018-09-28T19:09:08.692Z,98846.78
2018-09-28T19:11:48.976Z,98864.00
2018-09-28T19:14:33.349Z,98862.73
2018-09-28T19:20:05.993Z,98859.73
2018-09-28T19:22:55.960Z,98858.09
2018-09-28T19:25:33.374Z,98863.80
2018-09-28T19:31:19.917Z,98885.98
2018-09-28T19:34:07.058Z,98889.05
2018-09-28T19:36:47.566Z,98896.62
2018-09-28T19:40:07.122Z,98902.53
2018-09-28T19:42:55.610Z,98913.02
2018-09-28T19:48:31.147Z,98916.42
2018-09-28T19:51:10.912Z,98924.48
2018-09-28T19:54:19.872Z,98932.79
2018-09-28T19:57:16.308Z,98944.31
2018-09-28T19:59:58.282Z,98954.13
2018-09-28T20:02:35.634Z,98953.73
2018-09-28T20:05:23.155Z,98953.00
2018-09-28T20:08:03.686Z,98949.78
2018-09-28T20:14:29.023Z,98972.48
2018-09-28T20:23:10.653Z,98967.74
2018-09-28T20:29:09.187Z,98984.52
2018-09-28T20:35:05.212Z,99001.72
2018-09-28T20:37:44.528Z,99005.45
2018-09-28T20:40:28.784Z,99006.11
2018-09-28T20:43:11.410Z,99001.80
2018-09-28T20:45:56.162Z,99021.58
2018-09-28T20:48:54.822Z,99016.31
2018-09-28T20:51:42.581Z,99007.88
2018-09-28T20:54:26.691Z,99012.08
2018-09-28T21:17:59.235Z,99011.36
2018-09-28T21:20:51.639Z,99021.44
2018-09-28T21:35:36.713Z,98999.66
2018-09-28T21:41:41.832Z,99008.59
2018-09-28T21:44:29.805Z,99003.06
2018-09-28T21:47:06.971Z,99012.30
2018-09-28T21:49:46.880Z,99013.73
2018-09-28T21:52:30.914Z,99006.72
2018-09-28T21:55:08.598Z,98999.50
2018-09-28T21:57:44.410Z,99004.16
2018-09-28T22:00:20.427Z,99000.39
2018-09-28T22:03:06.465Z,98977.72
2018-09-28T22:06:06.308Z,99006.89
2018-09-28T22:11:47.388Z,99017.58
2018-09-28T22:53:52.038Z,99032.92
2018-09-28T22:56:29.603Z,99032.86
2018-09-28T22:59:01.804Z,99037.36
2018-09-28T23:01:33.603Z,99032.17
2018-09-28T23:04:06.175Z,99045.42
